sensor_id;sensor_type;location;lat;lon;timestamp;P1;durP1;ratioP1;P2;durP2;ratioP2
14021;SDS011;7086;48.116;11.580;2023-08-24T00:01:07;2.42;;;2.33;;
14021;SDS011;7086;48.116;11.580;2023-08-24T00:03:37;4.32;;;2.67;;
14021;SDS011;7086;48.116;11.580;2023-08-24T00:06:04;3.72;;;2.58;;
14021;SDS011;7086;48.116;11.580;2023-08-24T00:08:31;2.67;;;2.35;;
14021;SDS011;7086;48.116;11.580;2023-08-24T00:10:58;2.58;;;2.38;;
14021;SDS011;7086;48.116;11.580;2023-08-24T00:13:25;2.58;;;2.38;;
14021;SDS011;7086;48.116;11.580;2023-08-24T00:15:52;4.07;;;2.42;;
14021;SDS011;7086;48.116;11.580;2023-08-24T00:18:21;3.95;;;2.75;;
14021;SDS011;7086;48.116;11.580;2023-08-24T00:20:48;3.05;;;2.85;;
14021;SDS011;7086;48.116;11.580;2023-08-24T00:23:15;3.83;;;2.92;;
14021;SDS011;7086;48.116;11.580;2023-08-24T00:25:42;3.40;;;3.13;;
14021;SDS011;7086;48.116;11.580;2023-08-24T00:28:09;2.92;;;2.53;;
14021;SDS011;7086;48.116;11.580;2023-08-24T00:30:36;5.07;;;3.13;;
14021;SDS011;7086;48.116;11.580;2023-08-24T00:33:03;2.95;;;2.67;;
14021;SDS011;7086;48.116;11.580;2023-08-24T00:35:31;3.15;;;2.92;;
14021;SDS011;7086;48.116;11.580;2023-08-24T00:37:58;3.33;;;3.03;;
14021;SDS011;7086;48.116;11.580;2023-08-24T00:40:25;2.80;;;2.60;;
14021;SDS011;7086;48.116;11.580;2023-08-24T00:42:52;4.03;;;3.55;;
14021;SDS011;7086;48.116;11.580;2023-08-24T00:45:18;3.50;;;3.20;;
14021;SDS011;7086;48.116;11.580;2023-08-24T00:47:46;5.95;;;3.40;;
14021;SDS011;7086;48.116;11.580;2023-08-24T00:50:13;3.40;;;3.15;;
14021;SDS011;7086;48.116;11.580;2023-08-24T00:52:44;6.15;;;3.38;;
14021;SDS011;7086;48.116;11.580;2023-08-24T00:55:13;3.83;;;2.83;;
14021;SDS011;7086;48.116;11.580;2023-08-24T00:57:40;3.47;;;3.17;;
14021;SDS011;7086;48.116;11.580;2023-08-24T01:00:08;4.35;;;3.78;;
14021;SDS011;7086;48.116;11.580;2023-08-24T01:02:36;4.10;;;3.45;;
14021;SDS011;7086;48.116;11.580;2023-08-24T01:05:03;3.90;;;3.70;;
14021;SDS011;7086;48.116;11.580;2023-08-24T01:07:32;3.70;;;3.40;;
14021;SDS011;7086;48.116;11.580;2023-08-24T01:10:01;3.47;;;3.28;;
14021;SDS011;7086;48.116;11.580;2023-08-24T01:12:31;3.97;;;3.67;;
14021;SDS011;7086;48.116;11.580;2023-08-24T01:15:04;4.15;;;3.70;;
14021;SDS011;7086;48.116;11.580;2023-08-24T01:17:35;5.03;;;4.13;;
14021;SDS011;7086;48.116;11.580;2023-08-24T01:20:05;4.57;;;4.13;;
14021;SDS011;7086;48.116;11.580;2023-08-24T01:22:37;6.35;;;4.05;;
14021;SDS011;7086;48.116;11.580;2023-08-24T01:25:14;4.30;;;4.00;;
14021;SDS011;7086;48.116;11.580;2023-08-24T01:27:44;4.03;;;3.72;;
14021;SDS011;7086;48.116;11.580;2023-08-24T01:30:13;3.85;;;3.55;;
14021;SDS011;7086;48.116;11.580;2023-08-24T01:32:40;3.97;;;3.70;;
14021;SDS011;7086;48.116;11.580;2023-08-24T01:35:08;5.10;;;4.07;;
14021;SDS011;7086;48.116;11.580;2023-08-24T01:37:36;5.30;;;4.70;;
14021;SDS011;7086;48.116;11.580;2023-08-24T01:40:04;6.32;;;4.70;;
14021;SDS011;7086;48.116;11.580;2023-08-24T01:42:35;5.32;;;4.30;;
14021;SDS011;7086;48.116;11.580;2023-08-24T01:45:07;5.05;;;4.45;;
14021;SDS011;7086;48.116;11.580;2023-08-24T01:47:35;3.90;;;3.60;;
14021;SDS011;7086;48.116;11.580;2023-08-24T01:50:04;4.10;;;3.78;;
14021;SDS011;7086;48.116;11.580;2023-08-24T01:52:32;4.57;;;4.18;;
14021;SDS011;7086;48.116;11.580;2023-08-24T01:55:00;4.88;;;4.35;;
14021;SDS011;7086;48.116;11.580;2023-08-24T01:57:27;6.47;;;4.38;;
14021;SDS011;7086;48.116;11.580;2023-08-24T01:59:54;4.85;;;4.07;;
14021;SDS011;7086;48.116;11.580;2023-08-24T02:02:23;5.63;;;4.95;;
14021;SDS011;7086;48.116;11.580;2023-08-24T02:04:50;4.65;;;4.25;;
14021;SDS011;7086;48.116;11.580;2023-08-24T02:07:20;5.72;;;4.60;;
14021;SDS011;7086;48.116;11.580;2023-08-24T02:09:47;4.65;;;4.25;;
14021;SDS011;7086;48.116;11.580;2023-08-24T02:12:14;6.05;;;5.07;;
14021;SDS011;7086;48.116;11.580;2023-08-24T02:14:41;6.35;;;5.03;;
14021;SDS011;7086;48.116;11.580;2023-08-24T02:17:08;5.40;;;5.00;;
14021;SDS011;7086;48.116;11.580;2023-08-24T02:19:36;6.05;;;4.95;;
14021;SDS011;7086;48.116;11.580;2023-08-24T02:22:03;6.47;;;5.32;;
14021;SDS011;7086;48.116;11.580;2023-08-24T02:24:30;6.85;;;5.00;;
14021;SDS011;7086;48.116;11.580;2023-08-24T02:26:56;4.75;;;4.50;;
14021;SDS011;7086;48.116;11.580;2023-08-24T02:29:23;5.18;;;4.88;;
14021;SDS011;7086;48.116;11.580;2023-08-24T02:31:50;5.32;;;4.78;;
14021;SDS011;7086;48.116;11.580;2023-08-24T02:34:18;6.38;;;5.82;;
14021;SDS011;7086;48.116;11.580;2023-08-24T02:36:46;6.95;;;4.90;;
14021;SDS011;7086;48.116;11.580;2023-08-24T02:39:13;6.03;;;4.60;;
14021;SDS011;7086;48.116;11.580;2023-08-24T02:41:40;7.10;;;5.03;;
14021;SDS011;7086;48.116;11.580;2023-08-24T02:44:07;5.15;;;4.72;;
14021;SDS011;7086;48.116;11.580;2023-08-24T02:46:34;5.30;;;4.80;;
14021;SDS011;7086;48.116;11.580;2023-08-24T02:49:01;6.47;;;5.00;;
14021;SDS011;7086;48.116;11.580;2023-08-24T02:51:27;4.88;;;4.57;;
14021;SDS011;7086;48.116;11.580;2023-08-24T02:53:57;5.03;;;4.60;;
14021;SDS011;7086;48.116;11.580;2023-08-24T02:56:24;5.57;;;5.07;;
14021;SDS011;7086;48.116;11.580;2023-08-24T02:58:51;4.97;;;4.57;;
14021;SDS011;7086;48.116;11.580;2023-08-24T03:01:18;10.05;;;4.82;;
14021;SDS011;7086;48.116;11.580;2023-08-24T03:03:45;5.88;;;5.28;;
14021;SDS011;7086;48.116;11.580;2023-08-24T03:06:11;7.38;;;5.63;;
14021;SDS011;7086;48.116;11.580;2023-08-24T03:08:38;7.75;;;4.95;;
14021;SDS011;7086;48.116;11.580;2023-08-24T03:11:06;5.55;;;5.18;;
14021;SDS011;7086;48.116;11.580;2023-08-24T03:13:35;6.68;;;6.07;;
14021;SDS011;7086;48.116;11.580;2023-08-24T03:16:03;5.75;;;5.32;;
14021;SDS011;7086;48.116;11.580;2023-08-24T03:18:30;5.47;;;5.07;;
14021;SDS011;7086;48.116;11.580;2023-08-24T03:20:57;6.40;;;5.50;;
14021;SDS011;7086;48.116;11.580;2023-08-24T03:23:24;5.22;;;4.72;;
14021;SDS011;7086;48.116;11.580;2023-08-24T03:25:51;5.28;;;4.78;;
14021;SDS011;7086;48.116;11.580;2023-08-24T03:28:19;7.30;;;5.15;;
14021;SDS011;7086;48.116;11.580;2023-08-24T03:30:46;5.80;;;5.22;;
14021;SDS011;7086;48.116;11.580;2023-08-24T03:33:19;6.07;;;4.68;;
14021;SDS011;7086;48.116;11.580;2023-08-24T03:35:46;6.32;;;5.30;;
14021;SDS011;7086;48.116;11.580;2023-08-24T03:38:13;5.32;;;4.93;;
14021;SDS011;7086;48.116;11.580;2023-08-24T03:40:40;5.93;;;5.47;;
14021;SDS011;7086;48.116;11.580;2023-08-24T03:43:07;5.38;;;4.90;;
14021;SDS011;7086;48.116;11.580;2023-08-24T03:45:35;5.35;;;4.85;;
14021;SDS011;7086;48.116;11.580;2023-08-24T03:48:02;5.60;;;5.18;;
14021;SDS011;7086;48.116;11.580;2023-08-24T03:50:29;7.32;;;5.25;;
14021;SDS011;7086;48.116;11.580;2023-08-24T03:52:56;7.05;;;5.45;;
14021;SDS011;7086;48.116;11.580;2023-08-24T03:55:22;6.68;;;5.03;;
14021;SDS011;7086;48.116;11.580;2023-08-24T03:57:49;5.32;;;4.90;;
14021;SDS011;7086;48.116;11.580;2023-08-24T04:00:16;6.72;;;5.65;;
14021;SDS011;7086;48.116;11.580;2023-08-24T04:02:45;5.95;;;4.97;;
14021;SDS011;7086;48.116;11.580;2023-08-24T04:05:11;5.68;;;5.18;;
14021;SDS011;7086;48.116;11.580;2023-08-24T04:07:38;5.70;;;5.25;;
14021;SDS011;7086;48.116;11.580;2023-08-24T04:10:07;4.95;;;4.65;;
14021;SDS011;7086;48.116;11.580;2023-08-24T04:12:34;5.20;;;4.80;;
14021;SDS011;7086;48.116;11.580;2023-08-24T04:15:01;5.75;;;5.22;;
14021;SDS011;7086;48.116;11.580;2023-08-24T04:17:29;5.18;;;4.78;;
14021;SDS011;7086;48.116;11.580;2023-08-24T04:19:58;5.75;;;5.25;;
14021;SDS011;7086;48.116;11.580;2023-08-24T04:22:25;5.65;;;4.68;;
14021;SDS011;7086;48.116;11.580;2023-08-24T04:24:51;4.95;;;4.55;;
14021;SDS011;7086;48.116;11.580;2023-08-24T04:27:18;6.57;;;5.88;;
14021;SDS011;7086;48.116;11.580;2023-08-24T04:29:47;5.55;;;5.10;;
14021;SDS011;7086;48.116;11.580;2023-08-24T04:32:14;5.35;;;4.90;;
14021;SDS011;7086;48.116;11.580;2023-08-24T04:34:40;6.53;;;5.80;;
14021;SDS011;7086;48.116;11.580;2023-08-24T04:37:08;5.57;;;5.07;;
14021;SDS011;7086;48.116;11.580;2023-08-24T04:39:35;5.80;;;5.28;;
14021;SDS011;7086;48.116;11.580;2023-08-24T04:42:02;4.75;;;4.35;;
14021;SDS011;7086;48.116;11.580;2023-08-24T04:44:29;5.63;;;5.07;;
14021;SDS011;7086;48.116;11.580;2023-08-24T04:46:56;4.65;;;4.25;;
14021;SDS011;7086;48.116;11.580;2023-08-24T04:49:23;5.50;;;5.10;;
14021;SDS011;7086;48.116;11.580;2023-08-24T04:51:49;6.15;;;4.90;;
14021;SDS011;7086;48.116;11.580;2023-08-24T04:54:18;5.75;;;5.25;;
14021;SDS011;7086;48.116;11.580;2023-08-24T04:56:44;5.18;;;4.78;;
14021;SDS011;7086;48.116;11.580;2023-08-24T04:59:11;4.93;;;4.57;;
14021;SDS011;7086;48.116;11.580;2023-08-24T05:01:38;5.57;;;5.18;;
14021;SDS011;7086;48.116;11.580;2023-08-24T05:04:05;5.40;;;4.93;;
14021;SDS011;7086;48.116;11.580;2023-08-24T05:06:32;6.38;;;5.82;;
14021;SDS011;7086;48.116;11.580;2023-08-24T05:08:58;5.95;;;5.35;;
14021;SDS011;7086;48.116;11.580;2023-08-24T05:11:28;7.20;;;5.95;;
14021;SDS011;7086;48.116;11.580;2023-08-24T05:13:55;8.23;;;5.50;;
14021;SDS011;7086;48.116;11.580;2023-08-24T05:16:22;5.72;;;5.22;;
14021;SDS011;7086;48.116;11.580;2023-08-24T05:18:49;10.02;;;6.50;;
14021;SDS011;7086;48.116;11.580;2023-08-24T05:21:16;5.95;;;5.38;;
14021;SDS011;7086;48.116;11.580;2023-08-24T05:23:43;6.95;;;5.78;;
14021;SDS011;7086;48.116;11.580;2023-08-24T05:26:10;5.65;;;5.18;;
14021;SDS011;7086;48.116;11.580;2023-08-24T05:28:38;5.85;;;5.30;;
14021;SDS011;7086;48.116;11.580;2023-08-24T05:31:05;6.05;;;5.43;;
14021;SDS011;7086;48.116;11.580;2023-08-24T05:33:32;5.32;;;4.95;;
14021;SDS011;7086;48.116;11.580;2023-08-24T05:35:59;5.70;;;4.85;;
14021;SDS011;7086;48.116;11.580;2023-08-24T05:38:26;5.65;;;4.88;;
14021;SDS011;7086;48.116;11.580;2023-08-24T05:40:53;5.60;;;5.20;;
14021;SDS011;7086;48.116;11.580;2023-08-24T05:43:19;7.25;;;5.50;;
14021;SDS011;7086;48.116;11.580;2023-08-24T05:45:48;5.78;;;5.30;;
14021;SDS011;7086;48.116;11.580;2023-08-24T05:48:15;5.63;;;5.13;;
14021;SDS011;7086;48.116;11.580;2023-08-24T05:50:43;7.10;;;5.70;;
14021;SDS011;7086;48.116;11.580;2023-08-24T05:53:13;8.07;;;6.35;;
14021;SDS011;7086;48.116;11.580;2023-08-24T05:55:40;6.88;;;6.13;;
14021;SDS011;7086;48.116;11.580;2023-08-24T05:58:07;8.18;;;6.13;;
14021;SDS011;7086;48.116;11.580;2023-08-24T06:00:35;7.43;;;6.57;;
14021;SDS011;7086;48.116;11.580;2023-08-24T06:03:03;7.85;;;7.05;;
14021;SDS011;7086;48.116;11.580;2023-08-24T06:05:31;7.88;;;5.97;;
14021;SDS011;7086;48.116;11.580;2023-08-24T06:07:57;7.13;;;6.43;;
14021;SDS011;7086;48.116;11.580;2023-08-24T06:10:24;9.05;;;7.30;;
14021;SDS011;7086;48.116;11.580;2023-08-24T06:12:52;6.97;;;6.18;;
14021;SDS011;7086;48.116;11.580;2023-08-24T06:15:20;6.07;;;5.43;;
14021;SDS011;7086;48.116;11.580;2023-08-24T06:17:49;8.68;;;7.35;;
14021;SDS011;7086;48.116;11.580;2023-08-24T06:20:17;8.45;;;6.70;;
14021;SDS011;7086;48.116;11.580;2023-08-24T06:22:45;8.20;;;6.57;;
14021;SDS011;7086;48.116;11.580;2023-08-24T06:25:15;10.55;;;6.43;;
14021;SDS011;7086;48.116;11.580;2023-08-24T06:27:42;8.07;;;6.35;;
14021;SDS011;7086;48.116;11.580;2023-08-24T06:30:09;7.57;;;6.13;;
14021;SDS011;7086;48.116;11.580;2023-08-24T06:32:36;6.13;;;5.53;;
14021;SDS011;7086;48.116;11.580;2023-08-24T06:35:03;6.38;;;5.45;;
14021;SDS011;7086;48.116;11.580;2023-08-24T06:37:33;7.32;;;6.63;;
14021;SDS011;7086;48.116;11.580;2023-08-24T06:40:01;7.05;;;6.50;;
14021;SDS011;7086;48.116;11.580;2023-08-24T06:42:30;5.57;;;5.05;;
14021;SDS011;7086;48.116;11.580;2023-08-24T06:44:57;5.90;;;5.40;;
14021;SDS011;7086;48.116;11.580;2023-08-24T06:47:24;5.57;;;4.97;;
14021;SDS011;7086;48.116;11.580;2023-08-24T06:49:51;5.15;;;4.82;;
14021;SDS011;7086;48.116;11.580;2023-08-24T06:52:18;4.90;;;4.60;;
14021;SDS011;7086;48.116;11.580;2023-08-24T06:54:46;5.75;;;5.15;;
14021;SDS011;7086;48.116;11.580;2023-08-24T06:57:18;6.32;;;5.78;;
14021;SDS011;7086;48.116;11.580;2023-08-24T06:59:45;5.68;;;5.13;;
14021;SDS011;7086;48.116;11.580;2023-08-24T07:02:13;5.32;;;4.82;;
14021;SDS011;7086;48.116;11.580;2023-08-24T07:04:40;5.75;;;5.00;;
14021;SDS011;7086;48.116;11.580;2023-08-24T07:07:07;6.95;;;4.78;;
14021;SDS011;7086;48.116;11.580;2023-08-24T07:09:34;6.40;;;4.85;;
14021;SDS011;7086;48.116;11.580;2023-08-24T07:12:04;5.18;;;4.72;;
14021;SDS011;7086;48.116;11.580;2023-08-24T07:14:35;5.40;;;4.88;;
14021;SDS011;7086;48.116;11.580;2023-08-24T07:17:02;4.63;;;4.30;;
14021;SDS011;7086;48.116;11.580;2023-08-24T07:19:34;4.93;;;4.43;;
14021;SDS011;7086;48.116;11.580;2023-08-24T07:22:18;6.32;;;4.93;;
14021;SDS011;7086;48.116;11.580;2023-08-24T07:24:48;4.75;;;4.40;;
14021;SDS011;7086;48.116;11.580;2023-08-24T07:27:42;5.43;;;4.82;;
14021;SDS011;7086;48.116;11.580;2023-08-24T07:30:26;5.13;;;4.72;;
14021;SDS011;7086;48.116;11.580;2023-08-24T07:33:32;4.43;;;4.03;;
14021;SDS011;7086;48.116;11.580;2023-08-24T07:36:54;4.80;;;4.43;;
14021;SDS011;7086;48.116;11.580;2023-08-24T07:46:25;5.32;;;4.80;;
14021;SDS011;7086;48.116;11.580;2023-08-24T07:52:26;4.53;;;4.20;;
14021;SDS011;7086;48.116;11.580;2023-08-24T07:55:47;5.07;;;4.78;;
14021;SDS011;7086;48.116;11.580;2023-08-24T08:02:47;4.07;;;3.70;;
14021;SDS011;7086;48.116;11.580;2023-08-24T08:09:53;3.83;;;3.55;;
14021;SDS011;7086;48.116;11.580;2023-08-24T08:20:26;4.07;;;3.78;;
14021;SDS011;7086;48.116;11.580;2023-08-24T08:22:56;4.13;;;3.83;;
14021;SDS011;7086;48.116;11.580;2023-08-24T08:25:26;4.57;;;4.18;;
14021;SDS011;7086;48.116;11.580;2023-08-24T08:28:15;3.97;;;3.78;;
14021;SDS011;7086;48.116;11.580;2023-08-24T08:31:05;4.10;;;3.78;;
14021;SDS011;7086;48.116;11.580;2023-08-24T08:33:33;3.88;;;3.58;;
14021;SDS011;7086;48.116;11.580;2023-08-24T08:36:05;4.28;;;3.88;;
14021;SDS011;7086;48.116;11.580;2023-08-24T08:38:37;4.40;;;4.00;;
14021;SDS011;7086;48.116;11.580;2023-08-24T08:41:11;4.25;;;3.63;;
14021;SDS011;7086;48.116;11.580;2023-08-24T08:43:39;4.10;;;3.80;;
14021;SDS011;7086;48.116;11.580;2023-08-24T08:46:06;4.32;;;3.92;;
14021;SDS011;7086;48.116;11.580;2023-08-24T08:48:33;4.30;;;3.50;;
14021;SDS011;7086;48.116;11.580;2023-08-24T08:51:00;3.63;;;3.42;;
14021;SDS011;7086;48.116;11.580;2023-08-24T08:53:29;3.95;;;3.60;;
14021;SDS011;7086;48.116;11.580;2023-08-24T08:55:56;4.25;;;4.00;;
14021;SDS011;7086;48.116;11.580;2023-08-24T08:58:28;4.43;;;4.13;;
14021;SDS011;7086;48.116;11.580;2023-08-24T09:00:56;4.28;;;4.00;;
14021;SDS011;7086;48.116;11.580;2023-08-24T09:03:25;4.18;;;3.78;;
14021;SDS011;7086;48.116;11.580;2023-08-24T09:05:54;3.50;;;3.22;;
14021;SDS011;7086;48.116;11.580;2023-08-24T09:08:21;5.05;;;4.18;;
14021;SDS011;7086;48.116;11.580;2023-08-24T09:10:49;3.47;;;3.17;;
14021;SDS011;7086;48.116;11.580;2023-08-24T09:13:16;4.82;;;3.75;;
14021;SDS011;7086;48.116;11.580;2023-08-24T09:15:43;5.22;;;3.60;;
14021;SDS011;7086;48.116;11.580;2023-08-24T09:18:10;3.20;;;3.10;;
14021;SDS011;7086;48.116;11.580;2023-08-24T09:20:37;4.35;;;4.03;;
14021;SDS011;7086;48.116;11.580;2023-08-24T09:23:04;3.53;;;3.33;;
14021;SDS011;7086;48.116;11.580;2023-08-24T09:25:31;5.15;;;3.78;;
14021;SDS011;7086;48.116;11.580;2023-08-24T09:27:59;5.43;;;3.50;;
14021;SDS011;7086;48.116;11.580;2023-08-24T09:30:29;3.40;;;3.17;;
14021;SDS011;7086;48.116;11.580;2023-08-24T09:33:01;4.45;;;3.50;;
14021;SDS011;7086;48.116;11.580;2023-08-24T09:35:29;3.30;;;3.10;;
14021;SDS011;7086;48.116;11.580;2023-08-24T09:38:00;3.42;;;3.05;;
14021;SDS011;7086;48.116;11.580;2023-08-24T09:40:27;3.13;;;2.80;;
14021;SDS011;7086;48.116;11.580;2023-08-24T09:42:54;3.53;;;3.33;;
14021;SDS011;7086;48.116;11.580;2023-08-24T09:45:22;4.78;;;3.17;;
14021;SDS011;7086;48.116;11.580;2023-08-24T09:47:49;3.88;;;3.53;;
14021;SDS011;7086;48.116;11.580;2023-08-24T09:50:17;3.20;;;3.05;;
14021;SDS011;7086;48.116;11.580;2023-08-24T09:52:44;3.92;;;3.67;;
14021;SDS011;7086;48.116;11.580;2023-08-24T09:55:13;8.13;;;3.42;;
14021;SDS011;7086;48.116;11.580;2023-08-24T09:57:47;4.13;;;3.58;;
14021;SDS011;7086;48.116;11.580;2023-08-24T10:00:23;3.88;;;3.45;;
14021;SDS011;7086;48.116;11.580;2023-08-24T10:02:52;3.45;;;3.25;;
14021;SDS011;7086;48.116;11.580;2023-08-24T10:05:20;3.42;;;3.13;;
14021;SDS011;7086;48.116;11.580;2023-08-24T10:07:49;3.42;;;2.95;;
14021;SDS011;7086;48.116;11.580;2023-08-24T10:10:19;3.25;;;3.03;;
14021;SDS011;7086;48.116;11.580;2023-08-24T10:12:47;3.10;;;2.90;;
14021;SDS011;7086;48.116;11.580;2023-08-24T10:15:17;3.88;;;3.17;;
14021;SDS011;7086;48.116;11.580;2023-08-24T10:17:46;3.10;;;2.80;;
14021;SDS011;7086;48.116;11.580;2023-08-24T10:20:14;3.08;;;2.88;;
14021;SDS011;7086;48.116;11.580;2023-08-24T10:22:42;5.35;;;3.00;;
14021;SDS011;7086;48.116;11.580;2023-08-24T10:25:09;3.13;;;3.03;;
14021;SDS011;7086;48.116;11.580;2023-08-24T10:27:37;3.53;;;3.30;;
14021;SDS011;7086;48.116;11.580;2023-08-24T10:30:09;3.70;;;3.40;;
14021;SDS011;7086;48.116;11.580;2023-08-24T10:32:37;3.75;;;3.20;;
14021;SDS011;7086;48.116;11.580;2023-08-24T10:35:07;4.38;;;3.67;;
14021;SDS011;7086;48.116;11.580;2023-08-24T10:37:36;3.70;;;3.40;;
14021;SDS011;7086;48.116;11.580;2023-08-24T10:40:03;3.50;;;3.20;;
14021;SDS011;7086;48.116;11.580;2023-08-24T10:42:43;4.57;;;3.72;;
14021;SDS011;7086;48.116;11.580;2023-08-24T10:45:13;2.97;;;2.78;;
14021;SDS011;7086;48.116;11.580;2023-08-24T10:47:44;3.67;;;2.80;;
14021;SDS011;7086;48.116;11.580;2023-08-24T10:50:13;3.10;;;2.90;;
14021;SDS011;7086;48.116;11.580;2023-08-24T10:52:42;8.48;;;3.35;;
14021;SDS011;7086;48.116;11.580;2023-08-24T10:55:30;3.40;;;3.13;;
14021;SDS011;7086;48.116;11.580;2023-08-24T10:58:01;3.55;;;3.33;;
14021;SDS011;7086;48.116;11.580;2023-08-24T11:00:29;4.20;;;3.05;;
14021;SDS011;7086;48.116;11.580;2023-08-24T11:02:58;4.25;;;3.20;;
14021;SDS011;7086;48.116;11.580;2023-08-24T11:05:27;6.25;;;3.50;;
14021;SDS011;7086;48.116;11.580;2023-08-24T11:07:56;2.92;;;2.63;;
14021;SDS011;7086;48.116;11.580;2023-08-24T11:10:25;2.63;;;2.42;;
14021;SDS011;7086;48.116;11.580;2023-08-24T11:13:05;2.90;;;2.67;;
14021;SDS011;7086;48.116;11.580;2023-08-24T11:15:39;3.10;;;2.67;;
14021;SDS011;7086;48.116;11.580;2023-08-24T11:18:13;3.70;;;2.97;;
14021;SDS011;7086;48.116;11.580;2023-08-24T11:20:43;3.17;;;2.97;;
14021;SDS011;7086;48.116;11.580;2023-08-24T11:23:12;6.63;;;3.03;;
14021;SDS011;7086;48.116;11.580;2023-08-24T11:25:40;6.50;;;2.63;;
14021;SDS011;7086;48.116;11.580;2023-08-24T11:28:07;5.55;;;2.80;;
14021;SDS011;7086;48.116;11.580;2023-08-24T11:30:35;4.00;;;3.08;;
14021;SDS011;7086;48.116;11.580;2023-08-24T11:33:02;3.38;;;3.08;;
14021;SDS011;7086;48.116;11.580;2023-08-24T11:35:29;3.30;;;2.80;;
14021;SDS011;7086;48.116;11.580;2023-08-24T11:38:04;5.00;;;2.55;;
14021;SDS011;7086;48.116;11.580;2023-08-24T11:40:31;3.13;;;2.83;;
14021;SDS011;7086;48.116;11.580;2023-08-24T11:42:58;3.90;;;2.95;;
14021;SDS011;7086;48.116;11.580;2023-08-24T11:45:29;3.13;;;2.50;;
14021;SDS011;7086;48.116;11.580;2023-08-24T11:47:57;2.60;;;2.40;;
14021;SDS011;7086;48.116;11.580;2023-08-24T11:50:25;3.50;;;3.20;;
14021;SDS011;7086;48.116;11.580;2023-08-24T11:52:53;2.58;;;2.33;;
14021;SDS011;7086;48.116;11.580;2023-08-24T11:55:22;5.28;;;2.80;;
14021;SDS011;7086;48.116;11.580;2023-08-24T11:57:49;4.22;;;2.78;;
14021;SDS011;7086;48.116;11.580;2023-08-24T12:00:17;2.67;;;2.47;;
14021;SDS011;7086;48.116;11.580;2023-08-24T12:02:46;5.65;;;2.60;;
14021;SDS011;7086;48.116;11.580;2023-08-24T12:05:20;3.38;;;2.75;;
14021;SDS011;7086;48.116;11.580;2023-08-24T12:07:48;2.40;;;2.20;;
14021;SDS011;7086;48.116;11.580;2023-08-24T12:10:15;4.90;;;2.10;;
14021;SDS011;7086;48.116;11.580;2023-08-24T12:12:44;4.05;;;2.60;;
14021;SDS011;7086;48.116;11.580;2023-08-24T12:15:17;3.42;;;2.58;;
14021;SDS011;7086;48.116;11.580;2023-08-24T12:17:45;3.83;;;2.42;;
14021;SDS011;7086;48.116;11.580;2023-08-24T12:20:17;3.88;;;2.55;;
14021;SDS011;7086;48.116;11.580;2023-08-24T12:22:49;4.25;;;2.90;;
14021;SDS011;7086;48.116;11.580;2023-08-24T12:25:17;4.55;;;2.50;;
14021;SDS011;7086;48.116;11.580;2023-08-24T12:27:46;6.90;;;2.70;;
14021;SDS011;7086;48.116;11.580;2023-08-24T12:30:16;3.88;;;2.80;;
14021;SDS011;7086;48.116;11.580;2023-08-24T12:32:43;3.83;;;2.58;;
14021;SDS011;7086;48.116;11.580;2023-08-24T12:35:10;7.13;;;2.78;;
14021;SDS011;7086;48.116;11.580;2023-08-24T12:37:38;4.85;;;2.42;;
14021;SDS011;7086;48.116;11.580;2023-08-24T12:40:05;2.78;;;2.30;;
14021;SDS011;7086;48.116;11.580;2023-08-24T12:42:33;3.85;;;2.00;;
14021;SDS011;7086;48.116;11.580;2023-08-24T12:45:02;4.10;;;2.42;;
14021;SDS011;7086;48.116;11.580;2023-08-24T12:47:30;5.80;;;3.25;;
14021;SDS011;7086;48.116;11.580;2023-08-24T12:50:00;2.72;;;2.50;;
14021;SDS011;7086;48.116;11.580;2023-08-24T12:52:27;2.63;;;2.42;;
14021;SDS011;7086;48.116;11.580;2023-08-24T12:54:57;4.22;;;2.85;;
14021;SDS011;7086;48.116;11.580;2023-08-24T12:57:29;2.78;;;2.58;;
14021;SDS011;7086;48.116;11.580;2023-08-24T12:59:56;6.40;;;2.97;;
14021;SDS011;7086;48.116;11.580;2023-08-24T13:02:27;3.03;;;2.63;;
14021;SDS011;7086;48.116;11.580;2023-08-24T13:04:54;2.63;;;2.42;;
14021;SDS011;7086;48.116;11.580;2023-08-24T13:07:26;3.05;;;2.50;;
14021;SDS011;7086;48.116;11.580;2023-08-24T13:09:54;4.90;;;2.70;;
14021;SDS011;7086;48.116;11.580;2023-08-24T13:12:24;4.45;;;2.70;;
14021;SDS011;7086;48.116;11.580;2023-08-24T13:14:51;3.53;;;2.47;;
14021;SDS011;7086;48.116;11.580;2023-08-24T13:17:19;6.00;;;2.70;;
14021;SDS011;7086;48.116;11.580;2023-08-24T13:19:48;6.25;;;2.75;;
14021;SDS011;7086;48.116;11.580;2023-08-24T13:22:16;4.25;;;2.70;;
14021;SDS011;7086;48.116;11.580;2023-08-24T13:24:44;3.88;;;2.70;;
14021;SDS011;7086;48.116;11.580;2023-08-24T13:27:11;8.10;;;3.25;;
14021;SDS011;7086;48.116;11.580;2023-08-24T13:29:38;5.35;;;2.92;;
14021;SDS011;7086;48.116;11.580;2023-08-24T13:32:07;6.82;;;3.20;;
14021;SDS011;7086;48.116;11.580;2023-08-24T13:34:35;3.08;;;2.78;;
14021;SDS011;7086;48.116;11.580;2023-08-24T13:37:04;6.45;;;3.10;;
14021;SDS011;7086;48.116;11.580;2023-08-24T13:39:31;6.90;;;3.13;;
14021;SDS011;7086;48.116;11.580;2023-08-24T13:41:58;5.25;;;2.80;;
14021;SDS011;7086;48.116;11.580;2023-08-24T13:44:26;8.18;;;3.28;;
14021;SDS011;7086;48.116;11.580;2023-08-24T13:46:53;6.43;;;3.30;;
14021;SDS011;7086;48.116;11.580;2023-08-24T13:49:20;6.78;;;3.13;;
14021;SDS011;7086;48.116;11.580;2023-08-24T13:52:19;4.18;;;2.80;;
14021;SDS011;7086;48.116;11.580;2023-08-24T13:54:49;5.63;;;2.95;;
14021;SDS011;7086;48.116;11.580;2023-08-24T13:57:17;6.70;;;2.88;;
14021;SDS011;7086;48.116;11.580;2023-08-24T13:59:51;6.85;;;2.97;;
14021;SDS011;7086;48.116;11.580;2023-08-24T14:02:20;8.65;;;2.58;;
14021;SDS011;7086;48.116;11.580;2023-08-24T14:05:00;6.97;;;3.15;;
14021;SDS011;7086;48.116;11.580;2023-08-24T14:07:29;6.45;;;2.70;;
14021;SDS011;7086;48.116;11.580;2023-08-24T14:09:56;6.70;;;4.03;;
14021;SDS011;7086;48.116;11.580;2023-08-24T14:12:23;5.63;;;3.65;;
14021;SDS011;7086;48.116;11.580;2023-08-24T14:14:50;8.30;;;2.78;;
14021;SDS011;7086;48.116;11.580;2023-08-24T14:17:17;3.58;;;2.70;;
14021;SDS011;7086;48.116;11.580;2023-08-24T14:19:49;5.43;;;3.28;;
14021;SDS011;7086;48.116;11.580;2023-08-24T14:22:16;5.97;;;3.80;;
14021;SDS011;7086;48.116;11.580;2023-08-24T14:24:44;6.35;;;3.55;;
14021;SDS011;7086;48.116;11.580;2023-08-24T14:27:11;6.72;;;3.55;;
14021;SDS011;7086;48.116;11.580;2023-08-24T14:29:38;5.40;;;4.15;;
14021;SDS011;7086;48.116;11.580;2023-08-24T14:32:05;5.65;;;3.58;;
14021;SDS011;7086;48.116;11.580;2023-08-24T14:34:32;11.50;;;3.35;;
14021;SDS011;7086;48.116;11.580;2023-08-24T14:36:59;8.50;;;3.55;;
14021;SDS011;7086;48.116;11.580;2023-08-24T14:39:26;8.00;;;3.22;;
14021;SDS011;7086;48.116;11.580;2023-08-24T14:41:54;5.28;;;3.42;;
14021;SDS011;7086;48.116;11.580;2023-08-24T14:44:21;4.72;;;4.28;;
14021;SDS011;7086;48.116;11.580;2023-08-24T14:46:48;6.35;;;3.28;;
14021;SDS011;7086;48.116;11.580;2023-08-24T14:49:15;10.27;;;4.50;;
14021;SDS011;7086;48.116;11.580;2023-08-24T14:51:44;7.55;;;3.45;;
14021;SDS011;7086;48.116;11.580;2023-08-24T14:54:10;7.40;;;3.47;;
14021;SDS011;7086;48.116;11.580;2023-08-24T14:56:39;5.82;;;3.47;;
14021;SDS011;7086;48.116;11.580;2023-08-24T14:59:08;5.93;;;3.25;;
14021;SDS011;7086;48.116;11.580;2023-08-24T15:01:36;3.65;;;3.10;;
14021;SDS011;7086;48.116;11.580;2023-08-24T15:04:03;7.97;;;3.30;;
14021;SDS011;7086;48.116;11.580;2023-08-24T15:06:30;5.57;;;3.22;;
14021;SDS011;7086;48.116;11.580;2023-08-24T15:08:57;4.18;;;3.60;;
14021;SDS011;7086;48.116;11.580;2023-08-24T15:11:24;4.78;;;3.15;;
14021;SDS011;7086;48.116;11.580;2023-08-24T15:13:51;4.53;;;3.42;;
14021;SDS011;7086;48.116;11.580;2023-08-24T15:16:20;4.60;;;2.83;;
14021;SDS011;7086;48.116;11.580;2023-08-24T15:18:47;7.32;;;3.35;;
14021;SDS011;7086;48.116;11.580;2023-08-24T15:21:14;5.38;;;3.95;;
14021;SDS011;7086;48.116;11.580;2023-08-24T15:23:41;7.18;;;4.03;;
14021;SDS011;7086;48.116;11.580;2023-08-24T15:26:08;9.80;;;3.22;;